sensor_id;sensor_type;location;lat;lon;timestamp;temperature;humidity
2621;DHT22;1320;48.128;11.592;2023-07-31T00:00:49;20.00;99.90
2621;DHT22;1320;48.128;11.592;2023-07-31T00:03:15;20.00;99.90
2621;DHT22;1320;48.128;11.592;2023-07-31T00:05:40;20.00;99.90
2621;DHT22;1320;48.128;11.592;2023-07-31T00:08:06;19.90;99.90
2621;DHT22;1320;48.128;11.592;2023-07-31T00:10:32;19.90;99.90
2621;DHT22;1320;48.128;11.592;2023-07-31T00:12:59;19.80;99.90
2621;DHT22;1320;48.128;11.592;2023-07-31T00:15:24;19.80;99.90
2621;DHT22;1320;48.128;11.592;2023-07-31T00:17:50;19.80;99.90
2621;DHT22;1320;48.128;11.592;2023-07-31T00:20:16;19.80;99.90
2621;DHT22;1320;48.128;11.592;2023-07-31T00:22:41;19.70;99.90
2621;DHT22;1320;48.128;11.592;2023-07-31T00:25:07;19.70;99.90
2621;DHT22;1320;48.128;11.592;2023-07-31T00:27:33;19.60;99.90
2621;DHT22;1320;48.128;11.592;2023-07-31T00:29:58;19.60;99.90
2621;DHT22;1320;48.128;11.592;2023-07-31T00:32:24;19.60;99.90
2621;DHT22;1320;48.128;11.592;2023-07-31T00:34:50;19.60;99.90
2621;DHT22;1320;48.128;11.592;2023-07-31T00:37:15;19.60;99.90
2621;DHT22;1320;48.128;11.592;2023-07-31T00:39:41;19.60;99.90
2621;DHT22;1320;48.128;11.592;2023-07-31T00:42:07;19.50;99.90
2621;DHT22;1320;48.128;11.592;2023-07-31T00:44:33;19.50;99.90
2621;DHT22;1320;48.128;11.592;2023-07-31T00:46:59;19.50;99.90
2621;DHT22;1320;48.128;11.592;2023-07-31T00:49:26;19.40;99.90
2621;DHT22;1320;48.128;11.592;2023-07-31T00:51:52;19.40;99.90
2621;DHT22;1320;48.128;11.592;2023-07-31T00:54:18;19.40;99.90
2621;DHT22;1320;48.128;11.592;2023-07-31T00:56:45;19.30;99.90
2621;DHT22;1320;48.128;11.592;2023-07-31T00:59:13;19.30;99.90
2621;DHT22;1320;48.128;11.592;2023-07-31T01:01:40;19.20;99.90
2621;DHT22;1320;48.128;11.592;2023-07-31T01:04:06;19.20;99.90
2621;DHT22;1320;48.128;11.592;2023-07-31T01:07:16;19.10;99.90
2621;DHT22;1320;48.128;11.592;2023-07-31T01:12:42;19.10;99.90
2621;DHT22;1320;48.128;11.592;2023-07-31T01:15:09;19.10;99.90
2621;DHT22;1320;48.128;11.592;2023-07-31T01:17:41;19.10;99.90
2621;DHT22;1320;48.128;11.592;2023-07-31T01:20:23;19.00;99.90
2621;DHT22;1320;48.128;11.592;2023-07-31T01:31:24;18.90;99.90
2621;DHT22;1320;48.128;11.592;2023-07-31T01:33:51;18.90;99.90
2621;DHT22;1320;48.128;11.592;2023-07-31T01:36:18;18.90;99.90
2621;DHT22;1320;48.128;11.592;2023-07-31T01:38:43;18.90;99.90
2621;DHT22;1320;48.128;11.592;2023-07-31T01:41:09;18.90;99.90
2621;DHT22;1320;48.128;11.592;2023-07-31T01:43:35;18.90;99.90
2621;DHT22;1320;48.128;11.592;2023-07-31T01:46:00;18.90;99.90
2621;DHT22;1320;48.128;11.592;2023-07-31T01:48:26;18.90;99.90
2621;DHT22;1320;48.128;11.592;2023-07-31T01:50:52;18.90;99.90
2621;DHT22;1320;48.128;11.592;2023-07-31T01:53:17;18.90;99.90
2621;DHT22;1320;48.128;11.592;2023-07-31T01:55:43;18.90;99.90
2621;DHT22;1320;48.128;11.592;2023-07-31T01:58:09;18.90;99.90
2621;DHT22;1320;48.128;11.592;2023-07-31T02:00:35;18.90;99.90
2621;DHT22;1320;48.128;11.592;2023-07-31T02:03:00;18.90;99.90
2621;DHT22;1320;48.128;11.592;2023-07-31T02:05:26;19.00;99.90
2621;DHT22;1320;48.128;11.592;2023-07-31T02:07:52;19.00;99.90
2621;DHT22;1320;48.128;11.592;2023-07-31T02:10:17;19.00;99.90
2621;DHT22;1320;48.128;11.592;2023-07-31T02:12:43;19.00;99.90
2621;DHT22;1320;48.128;11.592;2023-07-31T02:15:09;19.00;99.90
2621;DHT22;1320;48.128;11.592;2023-07-31T02:17:35;19.00;99.90
2621;DHT22;1320;48.128;11.592;2023-07-31T02:20:00;19.10;99.90
2621;DHT22;1320;48.128;11.592;2023-07-31T02:22:26;19.10;99.90
2621;DHT22;1320;48.128;11.592;2023-07-31T02:24:51;19.10;99.90
2621;DHT22;1320;48.128;11.592;2023-07-31T02:27:17;19.10;99.90
2621;DHT22;1320;48.128;11.592;2023-07-31T02:29:43;19.10;99.90
2621;DHT22;1320;48.128;11.592;2023-07-31T02:32:08;19.10;99.90
2621;DHT22;1320;48.128;11.592;2023-07-31T02:34:34;19.10;99.90
2621;DHT22;1320;48.128;11.592;2023-07-31T02:37:00;19.10;99.90
2621;DHT22;1320;48.128;11.592;2023-07-31T02:39:25;19.20;99.90
2621;DHT22;1320;48.128;11.592;2023-07-31T02:41:51;19.20;99.90
2621;DHT22;1320;48.128;11.592;2023-07-31T02:44:17;19.20;99.90
2621;DHT22;1320;48.128;11.592;2023-07-31T02:46:42;19.20;99.90
2621;DHT22;1320;48.128;11.592;2023-07-31T02:49:08;19.10;99.90
2621;DHT22;1320;48.128;11.592;2023-07-31T02:51:34;19.10;99.90
2621;DHT22;1320;48.128;11.592;2023-07-31T02:53:59;19.10;99.90
2621;DHT22;1320;48.128;11.592;2023-07-31T02:56:25;19.00;99.90
2621;DHT22;1320;48.128;11.592;2023-07-31T02:58:50;19.00;99.90
2621;DHT22;1320;48.128;11.592;2023-07-31T03:01:16;19.00;99.90
2621;DHT22;1320;48.128;11.592;2023-07-31T03:03:42;18.90;99.90
2621;DHT22;1320;48.128;11.592;2023-07-31T03:06:07;18.90;99.90
2621;DHT22;1320;48.128;11.592;2023-07-31T03:08:33;18.90;99.90
2621;DHT22;1320;48.128;11.592;2023-07-31T03:10:59;18.80;99.90
2621;DHT22;1320;48.128;11.592;2023-07-31T03:13:24;18.80;99.90
2621;DHT22;1320;48.128;11.592;2023-07-31T03:15:50;18.80;99.90
2621;DHT22;1320;48.128;11.592;2023-07-31T03:18:16;18.80;99.90
2621;DHT22;1320;48.128;11.592;2023-07-31T03:20:44;18.80;99.90
2621;DHT22;1320;48.128;11.592;2023-07-31T03:23:10;18.70;99.90
2621;DHT22;1320;48.128;11.592;2023-07-31T03:25:36;18.70;99.90
2621;DHT22;1320;48.128;11.592;2023-07-31T03:28:01;18.70;99.90
2621;DHT22;1320;48.128;11.592;2023-07-31T03:30:27;18.60;99.90
2621;DHT22;1320;48.128;11.592;2023-07-31T03:32:53;18.60;99.90
2621;DHT22;1320;48.128;11.592;2023-07-31T03:35:18;18.50;99.90
2621;DHT22;1320;48.128;11.592;2023-07-31T03:37:44;18.50;99.90
2621;DHT22;1320;48.128;11.592;2023-07-31T03:40:10;18.40;99.90
2621;DHT22;1320;48.128;11.592;2023-07-31T03:42:36;18.40;99.90
2621;DHT22;1320;48.128;11.592;2023-07-31T03:45:02;18.40;99.90
2621;DHT22;1320;48.128;11.592;2023-07-31T03:47:27;18.40;99.90
2621;DHT22;1320;48.128;11.592;2023-07-31T03:49:53;18.40;99.90
2621;DHT22;1320;48.128;11.592;2023-07-31T03:52:19;18.30;99.90
2621;DHT22;1320;48.128;11.592;2023-07-31T03:54:44;18.30;99.90
2621;DHT22;1320;48.128;11.592;2023-07-31T03:57:10;18.30;99.90
2621;DHT22;1320;48.128;11.592;2023-07-31T03:59:36;18.20;99.90
2621;DHT22;1320;48.128;11.592;2023-07-31T04:02:04;18.20;99.90
2621;DHT22;1320;48.128;11.592;2023-07-31T04:04:30;18.20;99.90
2621;DHT22;1320;48.128;11.592;2023-07-31T04:06:55;18.20;99.90
2621;DHT22;1320;48.128;11.592;2023-07-31T04:09:21;18.20;99.90
2621;DHT22;1320;48.128;11.592;2023-07-31T04:11:47;18.20;99.90
2621;DHT22;1320;48.128;11.592;2023-07-31T04:14:12;18.20;99.90
2621;DHT22;1320;48.128;11.592;2023-07-31T04:16:38;18.20;99.90
2621;DHT22;1320;48.128;11.592;2023-07-31T04:19:04;18.20;99.90
2621;DHT22;1320;48.128;11.592;2023-07-31T04:21:29;18.20;99.90
2621;DHT22;1320;48.128;11.592;2023-07-31T04:23:55;18.20;99.90
2621;DHT22;1320;48.128;11.592;2023-07-31T04:26:22;18.20;99.90
2621;DHT22;1320;48.128;11.592;2023-07-31T04:28:47;18.20;99.90
2621;DHT22;1320;48.128;11.592;2023-07-31T04:31:13;18.10;99.90
2621;DHT22;1320;48.128;11.592;2023-07-31T04:33:39;18.10;99.90
2621;DHT22;1320;48.128;11.592;2023-07-31T04:36:04;18.10;99.90
2621;DHT22;1320;48.128;11.592;2023-07-31T04:38:30;18.10;99.90
2621;DHT22;1320;48.128;11.592;2023-07-31T04:40:56;18.10;99.90
2621;DHT22;1320;48.128;11.592;2023-07-31T04:43:21;18.10;99.90
2621;DHT22;1320;48.128;11.592;2023-07-31T04:45:47;18.10;99.90
2621;DHT22;1320;48.128;11.592;2023-07-31T04:48:13;18.20;99.90
2621;DHT22;1320;48.128;11.592;2023-07-31T04:50:39;18.20;99.90
2621;DHT22;1320;48.128;11.592;2023-07-31T04:53:05;18.20;99.90
2621;DHT22;1320;48.128;11.592;2023-07-31T04:55:31;18.20;99.90
2621;DHT22;1320;48.128;11.592;2023-07-31T04:57:58;18.20;99.90
2621;DHT22;1320;48.128;11.592;2023-07-31T05:00:24;18.10;99.90
2621;DHT22;1320;48.128;11.592;2023-07-31T05:02:50;18.10;99.90
2621;DHT22;1320;48.128;11.592;2023-07-31T05:05:16;18.20;99.90
2621;DHT22;1320;48.128;11.592;2023-07-31T05:07:41;18.20;99.90
2621;DHT22;1320;48.128;11.592;2023-07-31T05:10:07;18.30;99.90
2621;DHT22;1320;48.128;11.592;2023-07-31T05:12:33;18.30;99.90
2621;DHT22;1320;48.128;11.592;2023-07-31T05:14:59;18.40;99.90
2621;DHT22;1320;48.128;11.592;2023-07-31T05:17:24;18.40;99.90
2621;DHT22;1320;48.128;11.592;2023-07-31T05:19:50;18.50;99.90
2621;DHT22;1320;48.128;11.592;2023-07-31T05:22:16;18.50;99.90
2621;DHT22;1320;48.128;11.592;2023-07-31T05:24:41;18.60;99.90
2621;DHT22;1320;48.128;11.592;2023-07-31T05:27:07;18.80;99.90
2621;DHT22;1320;48.128;11.592;2023-07-31T05:29:33;18.90;99.90
2621;DHT22;1320;48.128;11.592;2023-07-31T05:31:58;19.00;99.90
2621;DHT22;1320;48.128;11.592;2023-07-31T05:34:24;19.00;99.90
2621;DHT22;1320;48.128;11.592;2023-07-31T05:36:50;19.10;99.90
2621;DHT22;1320;48.128;11.592;2023-07-31T05:39:15;19.20;99.90
2621;DHT22;1320;48.128;11.592;2023-07-31T05:41:41;19.30;99.90
2621;DHT22;1320;48.128;11.592;2023-07-31T05:44:06;19.40;99.90
2621;DHT22;1320;48.128;11.592;2023-07-31T05:46:32;19.60;99.90
2621;DHT22;1320;48.128;11.592;2023-07-31T05:48:58;19.60;99.90
2621;DHT22;1320;48.128;11.592;2023-07-31T05:51:26;19.70;99.90
2621;DHT22;1320;48.128;11.592;2023-07-31T05:53:53;19.80;99.90
2621;DHT22;1320;48.128;11.592;2023-07-31T05:56:18;19.80;99.90
2621;DHT22;1320;48.128;11.592;2023-07-31T05:58:44;19.90;99.90
2621;DHT22;1320;48.128;11.592;2023-07-31T06:01:10;20.00;99.90
2621;DHT22;1320;48.128;11.592;2023-07-31T06:03:35;20.00;99.90
2621;DHT22;1320;48.128;11.592;2023-07-31T06:06:01;20.10;99.90
2621;DHT22;1320;48.128;11.592;2023-07-31T06:08:27;20.10;99.90
2621;DHT22;1320;48.128;11.592;2023-07-31T06:10:52;20.20;99.90
2621;DHT22;1320;48.128;11.592;2023-07-31T06:13:19;20.20;99.90
2621;DHT22;1320;48.128;11.592;2023-07-31T06:15:44;20.20;99.90
2621;DHT22;1320;48.128;11.592;2023-07-31T06:18:10;20.30;99.90
2621;DHT22;1320;48.128;11.592;2023-07-31T06:20:36;20.50;99.90
2621;DHT22;1320;48.128;11.592;2023-07-31T06:23:01;20.50;99.90
2621;DHT22;1320;48.128;11.592;2023-07-31T06:25:28;20.60;99.90
2621;DHT22;1320;48.128;11.592;2023-07-31T06:27:53;20.70;99.90
2621;DHT22;1320;48.128;11.592;2023-07-31T06:30:19;20.80;99.90
2621;DHT22;1320;48.128;11.592;2023-07-31T06:32:44;20.80;99.90
2621;DHT22;1320;48.128;11.592;2023-07-31T06:35:10;20.80;99.90
2621;DHT22;1320;48.128;11.592;2023-07-31T06:37:36;20.90;99.90
2621;DHT22;1320;48.128;11.592;2023-07-31T06:40:02;20.90;99.90
2621;DHT22;1320;48.128;11.592;2023-07-31T06:42:27;20.90;99.90
2621;DHT22;1320;48.128;11.592;2023-07-31T06:44:53;20.90;99.90
2621;DHT22;1320;48.128;11.592;2023-07-31T06:47:19;21.00;99.90
2621;DHT22;1320;48.128;11.592;2023-07-31T06:49:45;21.00;99.90
2621;DHT22;1320;48.128;11.592;2023-07-31T06:52:10;21.00;99.90
2621;DHT22;1320;48.128;11.592;2023-07-31T06:54:36;20.90;99.90
2621;DHT22;1320;48.128;11.592;2023-07-31T06:57:02;20.80;99.90
2621;DHT22;1320;48.128;11.592;2023-07-31T06:59:29;20.70;99.90
2621;DHT22;1320;48.128;11.592;2023-07-31T07:01:54;20.70;99.90
2621;DHT22;1320;48.128;11.592;2023-07-31T07:04:20;20.80;99.90
2621;DHT22;1320;48.128;11.592;2023-07-31T07:06:46;20.90;99.90
2621;DHT22;1320;48.128;11.592;2023-07-31T07:09:11;21.00;99.90
2621;DHT22;1320;48.128;11.592;2023-07-31T07:11:37;21.10;99.90
2621;DHT22;1320;48.128;11.592;2023-07-31T07:14:03;21.10;99.90
2621;DHT22;1320;48.128;11.592;2023-07-31T07:16:29;21.10;99.90
2621;DHT22;1320;48.128;11.592;2023-07-31T07:18:54;21.10;99.90
2621;DHT22;1320;48.128;11.592;2023-07-31T07:21:20;21.10;99.90
2621;DHT22;1320;48.128;11.592;2023-07-31T07:23:45;21.00;99.90
2621;DHT22;1320;48.128;11.592;2023-07-31T07:26:11;21.20;99.90
2621;DHT22;1320;48.128;11.592;2023-07-31T07:28:37;21.30;99.90
2621;DHT22;1320;48.128;11.592;2023-07-31T07:31:03;21.40;99.90
2621;DHT22;1320;48.128;11.592;2023-07-31T07:33:28;21.50;99.90
2621;DHT22;1320;48.128;11.592;2023-07-31T07:35:54;21.50;99.90
2621;DHT22;1320;48.128;11.592;2023-07-31T07:38:20;21.60;99.90
2621;DHT22;1320;48.128;11.592;2023-07-31T07:40:46;21.60;99.90
2621;DHT22;1320;48.128;11.592;2023-07-31T07:43:15;21.60;99.90
2621;DHT22;1320;48.128;11.592;2023-07-31T07:45:41;21.60;99.90
2621;DHT22;1320;48.128;11.592;2023-07-31T07:48:07;21.80;99.90
2621;DHT22;1320;48.128;11.592;2023-07-31T07:50:32;21.90;99.90
2621;DHT22;1320;48.128;11.592;2023-07-31T07:52:58;22.00;99.90
2621;DHT22;1320;48.128;11.592;2023-07-31T07:55:24;22.20;99.90
2621;DHT22;1320;48.128;11.592;2023-07-31T07:57:49;22.30;99.90
2621;DHT22;1320;48.128;11.592;2023-07-31T08:00:16;22.40;99.90
2621;DHT22;1320;48.128;11.592;2023-07-31T08:02:43;22.50;99.90
2621;DHT22;1320;48.128;11.592;2023-07-31T08:05:08;22.40;99.90
2621;DHT22;1320;48.128;11.592;2023-07-31T08:07:34;22.50;99.90
2621;DHT22;1320;48.128;11.592;2023-07-31T08:10:00;22.50;99.90
2621;DHT22;1320;48.128;11.592;2023-07-31T08:12:25;22.70;99.90
2621;DHT22;1320;48.128;11.592;2023-07-31T08:14:51;22.80;99.90
2621;DHT22;1320;48.128;11.592;2023-07-31T08:17:17;23.00;98.90
2621;DHT22;1320;48.128;11.592;2023-07-31T08:19:43;23.40;98.10
2621;DHT22;1320;48.128;11.592;2023-07-31T08:22:09;23.60;97.80
2621;DHT22;1320;48.128;11.592;2023-07-31T08:24:35;23.90;97.60
2621;DHT22;1320;48.128;11.592;2023-07-31T08:27:00;24.10;97.30
2621;DHT22;1320;48.128;11.592;2023-07-31T08:29:26;24.10;97.10
2621;DHT22;1320;48.128;11.592;2023-07-31T08:31:52;24.10;96.50
2621;DHT22;1320;48.128;11.592;2023-07-31T08:34:17;23.80;96.50
2621;DHT22;1320;48.128;11.592;2023-07-31T08:36:43;23.60;97.30
2621;DHT22;1320;48.128;11.592;2023-07-31T08:39:09;23.50;97.50
2621;DHT22;1320;48.128;11.592;2023-07-31T08:41:40;23.40;97.60
2621;DHT22;1320;48.128;11.592;2023-07-31T08:44:07;23.40;97.10
2621;DHT22;1320;48.128;11.592;2023-07-31T08:46:33;23.40;97.30
2621;DHT22;1320;48.128;11.592;2023-07-31T08:49:00;23.40;97.70
2621;DHT22;1320;48.128;11.592;2023-07-31T08:51:27;23.40;97.00
2621;DHT22;1320;48.128;11.592;2023-07-31T08:53:53;23.30;97.50
2621;DHT22;1320;48.128;11.592;2023-07-31T08:56:19;23.20;97.30
2621;DHT22;1320;48.128;11.592;2023-07-31T08:58:46;23.10;97.70
2621;DHT22;1320;48.128;11.592;2023-07-31T09:01:13;23.20;97.60
2621;DHT22;1320;48.128;11.592;2023-07-31T09:03:39;23.20;97.30
2621;DHT22;1320;48.128;11.592;2023-07-31T09:06:06;23.10;97.50
2621;DHT22;1320;48.128;11.592;2023-07-31T09:08:32;23.00;98.20
2621;DHT22;1320;48.128;11.592;2023-07-31T09:11:00;23.00;98.40
2621;DHT22;1320;48.128;11.592;2023-07-31T09:13:29;23.00;98.20
2621;DHT22;1320;48.128;11.592;2023-07-31T09:15:55;23.10;98.40
2621;DHT22;1320;48.128;11.592;2023-07-31T09:18:21;23.30;97.00
2621;DHT22;1320;48.128;11.592;2023-07-31T09:21:08;23.40;96.90
2621;DHT22;1320;48.128;11.592;2023-07-31T09:23:41;23.50;97.10
2621;DHT22;1320;48.128;11.592;2023-07-31T09:26:07;23.70;96.40
2621;DHT22;1320;48.128;11.592;2023-07-31T09:28:33;23.90;96.40
2621;DHT22;1320;48.128;11.592;2023-07-31T09:30:59;24.20;95.50
2621;DHT22;1320;48.128;11.592;2023-07-31T09:33:24;24.40;95.30
2621;DHT22;1320;48.128;11.592;2023-07-31T09:35:50;24.50;95.50
2621;DHT22;1320;48.128;11.592;2023-07-31T09:38:15;24.70;95.80
2621;DHT22;1320;48.128;11.592;2023-07-31T09:40:43;24.90;94.80
2621;DHT22;1320;48.128;11.592;2023-07-31T09:43:11;25.10;94.20
2621;DHT22;1320;48.128;11.592;2023-07-31T09:45:43;25.10;94.20
2621;DHT22;1320;48.128;11.592;2023-07-31T09:48:16;25.20;94.50
2621;DHT22;1320;48.128;11.592;2023-07-31T09:50:46;25.40;93.30
2621;DHT22;1320;48.128;11.592;2023-07-31T09:53:12;25.50;93.50
2621;DHT22;1320;48.128;11.592;2023-07-31T09:55:39;25.40;93.80
2621;DHT22;1320;48.128;11.592;2023-07-31T09:58:07;25.50;94.10
2621;DHT22;1320;48.128;11.592;2023-07-31T10:00:34;25.90;94.00
2621;DHT22;1320;48.128;11.592;2023-07-31T10:03:01;26.40;92.90
2621;DHT22;1320;48.128;11.592;2023-07-31T10:05:34;26.70;92.10
2621;DHT22;1320;48.128;11.592;2023-07-31T10:08:00;27.00;91.90
2621;DHT22;1320;48.128;11.592;2023-07-31T10:10:27;27.30;91.20
2621;DHT22;1320;48.128;11.592;2023-07-31T10:12:54;27.40;91.70
2621;DHT22;1320;48.128;11.592;2023-07-31T10:15:20;27.70;91.30
2621;DHT22;1320;48.128;11.592;2023-07-31T10:17:49;28.00;90.80
2621;DHT22;1320;48.128;11.592;2023-07-31T10:20:16;28.30;89.90
2621;DHT22;1320;48.128;11.592;2023-07-31T10:22:45;28.30;88.10
2621;DHT22;1320;48.128;11.592;2023-07-31T10:25:12;28.40;88.30
2621;DHT22;1320;48.128;11.592;2023-07-31T10:27:40;28.50;87.40
2621;DHT22;1320;48.128;11.592;2023-07-31T10:30:11;28.60;87.50
2621;DHT22;1320;48.128;11.592;2023-07-31T10:32:39;28.60;86.30
2621;DHT22;1320;48.128;11.592;2023-07-31T10:35:06;28.60;84.90
2621;DHT22;1320;48.128;11.592;2023-07-31T10:37:38;28.50;84.50
2621;DHT22;1320;48.128;11.592;2023-07-31T10:40:18;28.30;83.70
2621;DHT22;1320;48.128;11.592;2023-07-31T10:42:54;27.90;86.00
2621;DHT22;1320;48.128;11.592;2023-07-31T10:45:33;27.50;86.70
2621;DHT22;1320;48.128;11.592;2023-07-31T10:48:04;27.10;86.10
2621;DHT22;1320;48.128;11.592;2023-07-31T10:50:32;26.80;87.50
2621;DHT22;1320;48.128;11.592;2023-07-31T10:53:01;26.60;88.30
2621;DHT22;1320;48.128;11.592;2023-07-31T10:55:40;26.40;89.20
2621;DHT22;1320;48.128;11.592;2023-07-31T10:58:10;26.30;87.10
2621;DHT22;1320;48.128;11.592;2023-07-31T11:00:38;25.90;87.60
2621;DHT22;1320;48.128;11.592;2023-07-31T11:03:06;25.70;89.90
2621;DHT22;1320;48.128;11.592;2023-07-31T11:08:24;25.60;89.00
2621;DHT22;1320;48.128;11.592;2023-07-31T11:13:42;26.10;87.60
2621;DHT22;1320;48.128;11.592;2023-07-31T11:16:09;26.50;87.30
2621;DHT22;1320;48.128;11.592;2023-07-31T11:18:35;26.70;86.00
2621;DHT22;1320;48.128;11.592;2023-07-31T11:21:01;26.60;88.00
2621;DHT22;1320;48.128;11.592;2023-07-31T11:23:26;26.60;87.30
2621;DHT22;1320;48.128;11.592;2023-07-31T11:25:52;26.60;88.10
2621;DHT22;1320;48.128;11.592;2023-07-31T11:28:18;26.80;87.40
2621;DHT22;1320;48.128;11.592;2023-07-31T11:30:45;26.90;86.60
2621;DHT22;1320;48.128;11.592;2023-07-31T11:33:12;27.10;87.70
2621;DHT22;1320;48.128;11.592;2023-07-31T11:35:47;27.30;85.60
2621;DHT22;1320;48.128;11.592;2023-07-31T11:38:28;27.50;84.70
2621;DHT22;1320;48.128;11.592;2023-07-31T11:40:54;27.70;84.10
2621;DHT22;1320;48.128;11.592;2023-07-31T11:43:21;27.80;86.40
2621;DHT22;1320;48.128;11.592;2023-07-31T11:46:00;28.00;83.60
2621;DHT22;1320;48.128;11.592;2023-07-31T11:48:33;28.00;83.20
2621;DHT22;1320;48.128;11.592;2023-07-31T11:51:00;28.00;85.00
2621;DHT22;1320;48.128;11.592;2023-07-31T11:53:31;28.00;84.50
2621;DHT22;1320;48.128;11.592;2023-07-31T11:55:59;28.10;84.50
2621;DHT22;1320;48.128;11.592;2023-07-31T11:58:25;28.30;84.20
2621;DHT22;1320;48.128;11.592;2023-07-31T12:00:51;28.40;83.90
2621;DHT22;1320;48.128;11.592;2023-07-31T12:03:18;28.50;83.90
2621;DHT22;1320;48.128;11.592;2023-07-31T12:05:44;28.70;83.40
2621;DHT22;1320;48.128;11.592;2023-07-31T12:10:38;28.90;83.80
2621;DHT22;1320;48.128;11.592;2023-07-31T12:13:09;29.00;83.80
2621;DHT22;1320;48.128;11.592;2023-07-31T12:15:42;29.20;82.80
2621;DHT22;1320;48.128;11.592;2023-07-31T12:18:13;29.30;80.90
2621;DHT22;1320;48.128;11.592;2023-07-31T12:20:44;29.40;80.60
2621;DHT22;1320;48.128;11.592;2023-07-31T12:23:14;29.40;78.00
2621;DHT22;1320;48.128;11.592;2023-07-31T12:25:40;29.40;77.70
2621;DHT22;1320;48.128;11.592;2023-07-31T12:28:07;29.40;77.20
2621;DHT22;1320;48.128;11.592;2023-07-31T12:30:37;29.50;76.60
2621;DHT22;1320;48.128;11.592;2023-07-31T12:33:13;29.40;76.80
2621;DHT22;1320;48.128;11.592;2023-07-31T12:35:47;29.30;78.50
2621;DHT22;1320;48.128;11.592;2023-07-31T12:38:16;29.30;77.50
2621;DHT22;1320;48.128;11.592;2023-07-31T12:40:42;29.50;77.40
2621;DHT22;1320;48.128;11.592;2023-07-31T12:43:08;29.80;77.90
2621;DHT22;1320;48.128;11.592;2023-07-31T12:45:34;29.90;75.80
2621;DHT22;1320;48.128;11.592;2023-07-31T12:48:00;30.00;76.60
2621;DHT22;1320;48.128;11.592;2023-07-31T12:50:26;30.20;76.20
2621;DHT22;1320;48.128;11.592;2023-07-31T12:52:56;30.30;77.10
2621;DHT22;1320;48.128;11.592;2023-07-31T12:55:22;30.40;75.00
2621;DHT22;1320;48.128;11.592;2023-07-31T12:57:49;30.40;75.00
2621;DHT22;1320;48.128;11.592;2023-07-31T13:00:15;30.20;76.70
2621;DHT22;1320;48.128;11.592;2023-07-31T13:02:41;30.10;76.70
2621;DHT22;1320;48.128;11.592;2023-07-31T13:05:07;30.10;77.30
2621;DHT22;1320;48.128;11.592;2023-07-31T13:07:33;30.10;74.80
2621;DHT22;1320;48.128;11.592;2023-07-31T13:09:59;30.00;74.90
2621;DHT22;1320;48.128;11.592;2023-07-31T13:12:24;29.80;75.30
2621;DHT22;1320;48.128;11.592;2023-07-31T13:14:50;29.60;76.60
2621;DHT22;1320;48.128;11.592;2023-07-31T13:17:16;29.60;76.00
2621;DHT22;1320;48.128;11.592;2023-07-31T13:19:42;29.60;75.20
2621;DHT22;1320;48.128;11.592;2023-07-31T13:22:08;29.50;76.70
2621;DHT22;1320;48.128;11.592;2023-07-31T13:24:34;29.60;75.40
2621;DHT22;1320;48.128;11.592;2023-07-31T13:26:59;29.40;74.50
2621;DHT22;1320;48.128;11.592;2023-07-31T13:29:25;29.30;76.40
2621;DHT22;1320;48.128;11.592;2023-07-31T13:31:52;29.30;76.20
2621;DHT22;1320;48.128;11.592;2023-07-31T13:34:18;29.20;75.30
2621;DHT22;1320;48.128;11.592;2023-07-31T13:36:43;29.00;75.00
2621;DHT22;1320;48.128;11.592;2023-07-31T13:39:09;28.70;75.80
2621;DHT22;1320;48.128;11.592;2023-07-31T13:41:35;28.50;75.60
2621;DHT22;1320;48.128;11.592;2023-07-31T13:44:00;28.30;77.40
2621;DHT22;1320;48.128;11.592;2023-07-31T13:46:26;28.10;78.10
2621;DHT22;1320;48.128;11.592;2023-07-31T13:48:52;28.20;79.10
2621;DHT22;1320;48.128;11.592;2023-07-31T13:51:21;28.50;79.00
2621;DHT22;1320;48.128;11.592;2023-07-31T13:53:47;28.70;80.50
2621;DHT22;1320;48.128;11.592;2023-07-31T13:56:13;29.00;77.80
2621;DHT22;1320;48.128;11.592;2023-07-31T13:58:39;29.20;78.10
2621;DHT22;1320;48.128;11.592;2023-07-31T14:01:05;29.50;77.00
2621;DHT22;1320;48.128;11.592;2023-07-31T14:03:31;29.90;76.40
2621;DHT22;1320;48.128;11.592;2023-07-31T14:05:56;30.10;76.20
2621;DHT22;1320;48.128;11.592;2023-07-31T14:08:22;30.20;76.30
2621;DHT22;1320;48.128;11.592;2023-07-31T14:10:48;30.20;74.80
2621;DHT22;1320;48.128;11.592;2023-07-31T14:13:13;30.30;75.30
2621;DHT22;1320;48.128;11.592;2023-07-31T14:15:41;30.60;75.30
2621;DHT22;1320;48.128;11.592;2023-07-31T14:18:08;30.70;74.50
2621;DHT22;1320;48.128;11.592;2023-07-31T14:20:33;30.80;73.40
2621;DHT22;1320;48.128;11.592;2023-07-31T14:22:59;30.80;73.20
2621;DHT22;1320;48.128;11.592;2023-07-31T14:25:25;30.50;70.40
2621;DHT22;1320;48.128;11.592;2023-07-31T14:27:52;30.20;70.90
2621;DHT22;1320;48.128;11.592;2023-07-31T14:30:17;29.80;71.90
2621;DHT22;1320;48.128;11.592;2023-07-31T14:32:44;29.50;72.20
2621;DHT22;1320;48.128;11.592;2023-07-31T14:35:09;29.40;73.60
2621;DHT22;1320;48.128;11.592;2023-07-31T14:37:42;29.30;73.90
2621;DHT22;1320;48.128;11.592;2023-07-31T14:40:09;29.20;74.60
2621;DHT22;1320;48.128;11.592;2023-07-31T14:42:36;29.30;75.10
2621;DHT22;1320;48.128;11.592;2023-07-31T14:45:05;29.50;74.50
2621;DHT22;1320;48.128;11.592;2023-07-31T14:47:31;29.80;75.20
2621;DHT22;1320;48.128;11.592;2023-07-31T14:49:58;30.00;73.60
2621;DHT22;1320;48.128;11.592;2023-07-31T14:52:24;30.30;75.40
2621;DHT22;1320;48.128;11.592;2023-07-31T14:54:49;30.70;73.90
2621;DHT22;1320;48.128;11.592;2023-07-31T14:57:15;31.00;72.40
2621;DHT22;1320;48.128;11.592;2023-07-31T14:59:41;31.20;73.20
2621;DHT22;1320;48.128;11.592;2023-07-31T15:02:08;31.20;73.60
2621;DHT22;1320;48.128;11.592;2023-07-31T15:04:35;31.00;72.10
2621;DHT22;1320;48.128;11.592;2023-07-31T15:07:01;30.70;72.00
2621;DHT22;1320;48.128;11.592;2023-07-31T15:09:28;30.40;72.30
2621;DHT22;1320;48.128;11.592;2023-07-31T15:11:54;30.10;73.00
2621;DHT22;1320;48.128;11.592;2023-07-31T15:14:19;29.80;72.40
2621;DHT22;1320;48.128;11.592;2023-07-31T15:16:45;29.50;73.70
2621;DHT22;1320;48.128;11.592;2023-07-31T15:19:11;29.20;73.60
2621;DHT22;1320;48.128;11.592;2023-07-31T15:21:37;28.90;74.70
2621;DHT22;1320;48.128;11.592;2023-07-31T15:24:03;28.60;75.30
2621;DHT22;1320;48.128;11.592;2023-07-31T15:26:29;28.40;76.30
2621;DHT22;1320;48.128;11.592;2023-07-31T15:29:02;28.30;77.10
2621;DHT22;1320;48.128;11.592;2023-07-31T15:31:31;28.20;77.90
2621;DHT22;1320;48.128;11.592;2023-07-31T15:33:57;28.20;77.60
2621;DHT22;1320;48.128;11.592;2023-07-31T15:36:22;28.10;78.90
2621;DHT22;1320;48.128;11.592;2023-07-31T15:38:48;28.00;77.70
2621;DHT22;1320;48.128;11.592;2023-07-31T15:41:17;27.80;78.80
2621;DHT22;1320;48.128;11.592;2023-07-31T15:43:42;27.60;79.50
2621;DHT22;1320;48.128;11.592;2023-07-31T15:46:08;27.50;80.00
2621;DHT22;1320;48.128;11.592;2023-07-31T15:48:34;27.30;80.40
2621;DHT22;1320;48.128;11.592;2023-07-31T15:50:59;27.30;81.10
2621;DHT22;1320;48.128;11.592;2023-07-31T15:53:26;27.20;80.80
2621;DHT22;1320;48.128;11.592;2023-07-31T15:55:52;27.10;81.60
2621;DHT22;1320;48.128;11.592;2023-07-31T15:58:18;27.00;81.80
2621;DHT22;1320;48.128;11.592;2023-07-31T16:00:43;27.00;82.20